sensor_id;sensor_type;location;lat;lon;timestamp;pressure;altitude;pressure_sealevel;temperature;humidity
9421;BME280;4749;51.398;5.466;2023-03-04T00:00:27;102442.47;;;6.95;100.00
9421;BME280;4749;51.398;5.466;2023-03-04T00:02:54;102442.53;;;6.97;100.00
9421;BME280;4749;51.398;5.466;2023-03-04T00:05:22;102450.38;;;6.97;100.00
9421;BME280;4749;51.398;5.466;2023-03-04T00:07:49;102449.50;;;6.96;100.00
9421;BME280;4749;51.398;5.466;2023-03-04T00:10:16;102453.00;;;6.97;100.00
9421;BME280;4749;51.398;5.466;2023-03-04T00:12:43;102438.09;;;6.94;100.00
9421;BME280;4749;51.398;5.466;2023-03-04T00:15:11;102439.81;;;6.94;100.00
9421;BME280;4749;51.398;5.466;2023-03-04T00:17:38;102441.53;;;6.93;100.00
9421;BME280;4749;51.398;5.466;2023-03-04T00:20:06;102445.03;;;6.94;100.00
9421;BME280;4749;51.398;5.466;2023-03-04T00:22:33;102444.16;;;6.93;100.00
9421;BME280;4749;51.398;5.466;2023-03-04T00:25:00;102444.22;;;6.95;100.00
9421;BME280;4749;51.398;5.466;2023-03-04T00:27:27;102441.53;;;6.93;100.00
9421;BME280;4749;51.398;5.466;2023-03-04T00:29:55;102435.41;;;6.93;100.00
9421;BME280;4749;51.398;5.466;2023-03-04T00:32:23;102433.69;;;6.93;100.00
9421;BME280;4749;51.398;5.466;2023-03-04T00:34:50;102424.91;;;6.91;100.00
9421;BME280;4749;51.398;5.466;2023-03-04T00:37:17;102430.25;;;6.94;100.00
9421;BME280;4749;51.398;5.466;2023-03-04T00:39:44;102429.34;;;6.94;100.00
9421;BME280;4749;51.398;5.466;2023-03-04T00:42:12;102429.34;;;6.94;100.00
9421;BME280;4749;51.398;5.466;2023-03-04T00:44:39;102432.84;;;6.94;100.00
9421;BME280;4749;51.398;5.466;2023-03-04T00:47:06;102434.53;;;6.92;100.00
9421;BME280;4749;51.398;5.466;2023-03-04T00:49:33;102428.41;;;6.92;100.00
9421;BME280;4749;51.398;5.466;2023-03-04T00:52:00;102429.28;;;6.92;100.00
9421;BME280;4749;51.398;5.466;2023-03-04T00:54:27;102421.38;;;6.91;100.00
9421;BME280;4749;51.398;5.466;2023-03-04T00:56:55;102427.50;;;6.91;100.00
9421;BME280;4749;51.398;5.466;2023-03-04T00:59:22;102432.78;;;6.93;100.00
9421;BME280;4749;51.398;5.466;2023-03-04T01:01:49;102430.06;;;6.90;100.00
9421;BME280;4749;51.398;5.466;2023-03-04T01:04:16;102430.97;;;6.90;100.00
9421;BME280;4749;51.398;5.466;2023-03-04T01:06:44;102437.97;;;6.91;100.00
9421;BME280;4749;51.398;5.466;2023-03-04T01:09:11;102436.19;;;6.90;100.00
9421;BME280;4749;51.398;5.466;2023-03-04T01:11:38;102438.72;;;6.89;100.00
9421;BME280;4749;51.398;5.466;2023-03-04T01:14:05;102443.03;;;6.88;100.00
9421;BME280;4749;51.398;5.466;2023-03-04T01:16:33;102443.81;;;6.86;100.00
9421;BME280;4749;51.398;5.466;2023-03-04T01:19:00;102442.94;;;6.85;100.00
9421;BME280;4749;51.398;5.466;2023-03-04T01:21:28;102438.53;;;6.84;100.00
9421;BME280;4749;51.398;5.466;2023-03-04T01:23:55;102441.19;;;6.86;100.00
9421;BME280;4749;51.398;5.466;2023-03-04T01:26:22;102428.97;;;6.85;100.00
9421;BME280;4749;51.398;5.466;2023-03-04T01:28:49;102432.59;;;6.88;100.00
9421;BME280;4749;51.398;5.466;2023-03-04T01:31:16;102430.97;;;6.90;100.00
9421;BME280;4749;51.398;5.466;2023-03-04T01:33:43;102426.53;;;6.89;100.00
9421;BME280;4749;51.398;5.466;2023-03-04T01:36:11;102423.16;;;6.92;100.00
9421;BME280;4749;51.398;5.466;2023-03-04T01:38:38;102423.16;;;6.92;100.00
9421;BME280;4749;51.398;5.466;2023-03-04T01:41:05;102417.06;;;6.91;100.00
9421;BME280;4749;51.398;5.466;2023-03-04T01:43:35;102422.28;;;6.91;100.00
9421;BME280;4749;51.398;5.466;2023-03-04T01:46:04;102418.78;;;6.91;100.00
9421;BME280;4749;51.398;5.466;2023-03-04T01:48:37;102413.59;;;6.92;100.00
9421;BME280;4749;51.398;5.466;2023-03-04T01:51:15;102411.88;;;6.93;100.00
9421;BME280;4749;51.398;5.466;2023-03-04T01:53:46;102409.22;;;6.91;100.00
9421;BME280;4749;51.398;5.466;2023-03-04T01:56:33;102404.88;;;6.92;100.00
9421;BME280;4749;51.398;5.466;2023-03-04T02:04:21;102397.09;;;6.93;100.00
9421;BME280;4749;51.398;5.466;2023-03-04T02:06:49;102400.47;;;6.91;100.00
9421;BME280;4749;51.398;5.466;2023-03-04T02:09:18;102395.09;;;6.88;100.00
9421;BME280;4749;51.398;5.466;2023-03-04T02:11:46;102392.34;;;6.85;100.00
9421;BME280;4749;51.398;5.466;2023-03-04T02:14:16;102388.84;;;6.84;100.00
9421;BME280;4749;51.398;5.466;2023-03-04T02:16:44;102391.53;;;6.86;100.00
9421;BME280;4749;51.398;5.466;2023-03-04T02:19:26;102380.19;;;6.85;100.00
9421;BME280;4749;51.398;5.466;2023-03-04T02:21:57;102391.41;;;6.83;100.00
9421;BME280;4749;51.398;5.466;2023-03-04T02:24:40;102383.56;;;6.83;100.00
9421;BME280;4749;51.398;5.466;2023-03-04T02:27:09;102389.63;;;6.82;100.00
9421;BME280;4749;51.398;5.466;2023-03-04T02:29:36;102382.69;;;6.82;100.00
9421;BME280;4749;51.398;5.466;2023-03-04T02:32:04;102385.28;;;6.82;100.00
9421;BME280;4749;51.398;5.466;2023-03-04T02:34:35;102377.34;;;6.81;100.00
9421;BME280;4749;51.398;5.466;2023-03-04T02:37:03;102377.34;;;6.81;100.00
9421;BME280;4749;51.398;5.466;2023-03-04T02:39:44;102375.66;;;6.81;100.00
9421;BME280;4749;51.398;5.466;2023-03-04T02:42:12;102380.91;;;6.81;100.00
9421;BME280;4749;51.398;5.466;2023-03-04T02:44:41;102376.56;;;6.82;100.00
9421;BME280;4749;51.398;5.466;2023-03-04T02:47:16;102375.78;;;6.84;100.00
9421;BME280;4749;51.398;5.466;2023-03-04T02:49:46;102367.00;;;6.82;100.00
9421;BME280;4749;51.398;5.466;2023-03-04T02:52:24;102362.59;;;6.81;100.00
9421;BME280;4749;51.398;5.466;2023-03-04T02:54:52;102358.25;;;6.82;100.00
9421;BME280;4749;51.398;5.466;2023-03-04T02:57:19;102363.50;;;6.82;100.00
9421;BME280;4749;51.398;5.466;2023-03-04T02:59:46;102360.03;;;6.83;100.00
9421;BME280;4749;51.398;5.466;2023-03-04T03:02:14;102357.38;;;6.81;100.00
9421;BME280;4749;51.398;5.466;2023-03-04T03:04:41;102363.50;;;6.82;100.00
9421;BME280;4749;51.398;5.466;2023-03-04T03:07:08;102356.44;;;6.81;100.00
9421;BME280;4749;51.398;5.466;2023-03-04T03:09:36;102356.44;;;6.81;100.00
9421;BME280;4749;51.398;5.466;2023-03-04T03:12:03;102354.59;;;6.78;100.00
9421;BME280;4749;51.398;5.466;2023-03-04T03:14:31;102350.25;;;6.78;100.00
9421;BME280;4749;51.398;5.466;2023-03-04T03:16:58;102352.13;;;6.81;100.00
9421;BME280;4749;51.398;5.466;2023-03-04T03:19:25;102345.88;;;6.77;100.00
9421;BME280;4749;51.398;5.466;2023-03-04T03:21:52;102350.19;;;6.77;100.00
9421;BME280;4749;51.398;5.466;2023-03-04T03:24:19;102348.41;;;6.76;100.00
9421;BME280;4749;51.398;5.466;2023-03-04T03:26:47;102355.22;;;6.72;100.00
9421;BME280;4749;51.398;5.466;2023-03-04T03:29:14;102347.38;;;6.72;100.00
9421;BME280;4749;51.398;5.466;2023-03-04T03:31:42;102352.59;;;6.72;100.00
9421;BME280;4749;51.398;5.466;2023-03-04T03:34:09;102347.31;;;6.71;100.00
9421;BME280;4749;51.398;5.466;2023-03-04T03:36:36;102335.16;;;6.71;100.00
9421;BME280;4749;51.398;5.466;2023-03-04T03:39:03;102344.78;;;6.72;100.00
9421;BME280;4749;51.398;5.466;2023-03-04T03:41:31;102340.38;;;6.71;100.00
9421;BME280;4749;51.398;5.466;2023-03-04T03:43:59;102339.47;;;6.71;100.00
9421;BME280;4749;51.398;5.466;2023-03-04T03:46:26;102334.19;;;6.69;100.00
9421;BME280;4749;51.398;5.466;2023-03-04T03:48:53;102342.16;;;6.72;100.00
9421;BME280;4749;51.398;5.466;2023-03-04T03:51:20;102335.16;;;6.71;100.00
9421;BME280;4749;51.398;5.466;2023-03-04T03:53:47;102342.25;;;6.74;100.00
9421;BME280;4749;51.398;5.466;2023-03-04T03:56:15;102343.13;;;6.74;100.00
9421;BME280;4749;51.398;5.466;2023-03-04T03:58:42;102341.47;;;6.76;100.00
9421;BME280;4749;51.398;5.466;2023-03-04T04:01:09;102342.38;;;6.77;100.00
9421;BME280;4749;51.398;5.466;2023-03-04T04:03:36;102335.41;;;6.77;100.00
9421;BME280;4749;51.398;5.466;2023-03-04T04:06:04;102342.38;;;6.77;100.00
9421;BME280;4749;51.398;5.466;2023-03-04T04:08:31;102338.81;;;6.75;100.00
9421;BME280;4749;51.398;5.466;2023-03-04T04:10:59;102337.06;;;6.75;100.00
9421;BME280;4749;51.398;5.466;2023-03-04T04:13:26;102338.81;;;6.75;100.00
9421;BME280;4749;51.398;5.466;2023-03-04T04:15:53;102336.19;;;6.75;100.00
9421;BME280;4749;51.398;5.466;2023-03-04T04:18:21;102337.03;;;6.74;100.00
9421;BME280;4749;51.398;5.466;2023-03-04T04:20:51;102342.16;;;6.72;100.00
9421;BME280;4749;51.398;5.466;2023-03-04T04:23:19;102332.47;;;6.70;100.00
9421;BME280;4749;51.398;5.466;2023-03-04T04:25:46;102341.22;;;6.70;100.00
9421;BME280;4749;51.398;5.466;2023-03-04T04:28:13;102337.69;;;6.70;100.00
9421;BME280;4749;51.398;5.466;2023-03-04T04:30:41;102341.16;;;6.69;100.00
9421;BME280;4749;51.398;5.466;2023-03-04T04:33:09;102347.25;;;6.69;100.00
9421;BME280;4749;51.398;5.466;2023-03-04T04:35:37;102344.66;;;6.69;100.00
9421;BME280;4749;51.398;5.466;2023-03-04T04:38:06;102349.00;;;6.69;100.00
9421;BME280;4749;51.398;5.466;2023-03-04T04:40:33;102358.56;;;6.68;100.00
9421;BME280;4749;51.398;5.466;2023-03-04T04:43:01;102350.72;;;6.68;100.00
9421;BME280;4749;51.398;5.466;2023-03-04T04:45:29;102352.44;;;6.68;100.00
9421;BME280;4749;51.398;5.466;2023-03-04T04:47:56;102348.16;;;6.70;100.00
9421;BME280;4749;51.398;5.466;2023-03-04T04:50:24;102344.66;;;6.69;100.00
9421;BME280;4749;51.398;5.466;2023-03-04T04:52:52;102355.16;;;6.71;100.00
9421;BME280;4749;51.398;5.466;2023-03-04T04:55:19;102354.28;;;6.70;100.00
9421;BME280;4749;51.398;5.466;2023-03-04T04:57:46;102351.59;;;6.69;100.00
9421;BME280;4749;51.398;5.466;2023-03-04T05:00:14;102352.44;;;6.68;100.00
9421;BME280;4749;51.398;5.466;2023-03-04T05:02:41;102352.44;;;6.68;100.00
9421;BME280;4749;51.398;5.466;2023-03-04T05:05:09;102349.81;;;6.68;100.00
9421;BME280;4749;51.398;5.466;2023-03-04T05:07:36;102356.81;;;6.69;100.00
9421;BME280;4749;51.398;5.466;2023-03-04T05:10:04;102355.09;;;6.69;100.00
9421;BME280;4749;51.398;5.466;2023-03-04T05:12:31;102359.44;;;6.69;100.00
9421;BME280;4749;51.398;5.466;2023-03-04T05:14:58;102351.53;;;6.67;100.00
9421;BME280;4749;51.398;5.466;2023-03-04T05:17:27;102346.38;;;6.69;100.00
9421;BME280;4749;51.398;5.466;2023-03-04T05:19:54;102345.47;;;6.68;100.00
9421;BME280;4749;51.398;5.466;2023-03-04T05:22:21;102348.09;;;6.68;100.00
9421;BME280;4749;51.398;5.466;2023-03-04T05:24:48;102348.03;;;6.67;100.00
9421;BME280;4749;51.398;5.466;2023-03-04T05:27:16;102349.19;;;6.73;100.00
9421;BME280;4749;51.398;5.466;2023-03-04T05:29:43;102349.09;;;6.72;100.00
9421;BME280;4749;51.398;5.466;2023-03-04T05:32:12;102353.38;;;6.70;100.00
9421;BME280;4749;51.398;5.466;2023-03-04T05:34:40;102352.50;;;6.69;100.00
9421;BME280;4749;51.398;5.466;2023-03-04T05:37:07;102349.81;;;6.68;100.00
9421;BME280;4749;51.398;5.466;2023-03-04T05:39:34;102354.22;;;6.69;100.00
9421;BME280;4749;51.398;5.466;2023-03-04T05:42:01;102345.44;;;6.67;100.00
9421;BME280;4749;51.398;5.466;2023-03-04T05:44:29;102356.78;;;6.67;100.00
9421;BME280;4749;51.398;5.466;2023-03-04T05:46:56;102349.69;;;6.65;100.00
9421;BME280;4749;51.398;5.466;2023-03-04T05:49:23;102350.50;;;6.64;100.00
9421;BME280;4749;51.398;5.466;2023-03-04T05:51:50;102359.31;;;6.66;100.00
9421;BME280;4749;51.398;5.466;2023-03-04T05:54:18;102354.94;;;6.65;100.00
9421;BME280;4749;51.398;5.466;2023-03-04T05:56:45;102354.84;;;6.63;100.00
9421;BME280;4749;51.398;5.466;2023-03-04T05:59:12;102358.59;;;6.70;100.00
9421;BME280;4749;51.398;5.466;2023-03-04T06:01:40;102355.09;;;6.69;100.00
9421;BME280;4749;51.398;5.466;2023-03-04T06:04:07;102353.28;;;6.67;100.00
9421;BME280;4749;51.398;5.466;2023-03-04T06:06:34;102352.44;;;6.68;100.00
9421;BME280;4749;51.398;5.466;2023-03-04T06:09:01;102361.09;;;6.67;100.00
9421;BME280;4749;51.398;5.466;2023-03-04T06:11:29;102362.00;;;6.67;100.00
9421;BME280;4749;51.398;5.466;2023-03-04T06:13:56;102357.72;;;6.69;100.00
9421;BME280;4749;51.398;5.466;2023-03-04T06:16:24;102364.78;;;6.72;100.00
9421;BME280;4749;51.398;5.466;2023-03-04T06:18:51;102370.03;;;6.72;100.00
9421;BME280;4749;51.398;5.466;2023-03-04T06:21:19;102364.78;;;6.72;100.00
9421;BME280;4749;51.398;5.466;2023-03-04T06:23:46;102366.50;;;6.71;100.00
9421;BME280;4749;51.398;5.466;2023-03-04T06:26:14;102368.25;;;6.71;100.00
9421;BME280;4749;51.398;5.466;2023-03-04T06:28:43;102366.50;;;6.71;100.00
9421;BME280;4749;51.398;5.466;2023-03-04T06:31:10;102374.44;;;6.73;100.00
9421;BME280;4749;51.398;5.466;2023-03-04T06:33:38;102370.72;;;6.68;100.00
9421;BME280;4749;51.398;5.466;2023-03-04T06:36:05;102374.22;;;6.68;100.00
9421;BME280;4749;51.398;5.466;2023-03-04T06:38:33;102379.47;;;6.68;100.00
9421;BME280;4749;51.398;5.466;2023-03-04T06:41:09;102377.84;;;6.72;100.00
9421;BME280;4749;51.398;5.466;2023-03-04T06:43:37;102377.06;;;6.73;100.00
9421;BME280;4749;51.398;5.466;2023-03-04T06:46:06;102382.41;;;6.76;100.00
9421;BME280;4749;51.398;5.466;2023-03-04T06:48:34;102382.47;;;6.77;100.00
9421;BME280;4749;51.398;5.466;2023-03-04T06:51:10;102379.22;;;6.83;100.00
9421;BME280;4749;51.398;5.466;2023-03-04T06:53:38;102387.25;;;6.88;100.00
9421;BME280;4749;51.398;5.466;2023-03-04T06:56:09;102383.81;;;6.89;100.00
9421;BME280;4749;51.398;5.466;2023-03-04T06:58:37;102390.97;;;6.93;100.00
9421;BME280;4749;51.398;5.466;2023-03-04T07:01:21;102395.47;;;6.97;100.00
9421;BME280;4749;51.398;5.466;2023-03-04T07:03:51;102401.69;;;6.99;100.00
9421;BME280;4749;51.398;5.466;2023-03-04T07:06:23;102400.78;;;6.98;100.00
9421;BME280;4749;51.398;5.466;2023-03-04T07:08:51;102401.59;;;6.97;100.00
9421;BME280;4749;51.398;5.466;2023-03-04T07:11:19;102397.97;;;6.94;100.00
9421;BME280;4749;51.398;5.466;2023-03-04T07:13:48;102397.97;;;6.94;100.00
9421;BME280;4749;51.398;5.466;2023-03-04T07:16:19;102396.38;;;6.97;100.00
9421;BME280;4749;51.398;5.466;2023-03-04T07:18:47;102404.41;;;7.02;100.00
9421;BME280;4749;51.398;5.466;2023-03-04T07:21:15;102401.75;;;7.00;100.00
9421;BME280;4749;51.398;5.466;2023-03-04T07:23:43;102406.97;;;7.00;100.00
9421;BME280;4749;51.398;5.466;2023-03-04T07:26:10;102406.16;;;7.01;100.00
9421;BME280;4749;51.398;5.466;2023-03-04T07:28:38;102412.31;;;7.03;100.00
9421;BME280;4749;51.398;5.466;2023-03-04T07:31:26;102411.50;;;7.04;100.00
9421;BME280;4749;51.398;5.466;2023-03-04T07:34:05;102417.72;;;7.07;100.00
9421;BME280;4749;51.398;5.466;2023-03-04T07:36:35;102409.19;;;7.12;100.00
9421;BME280;4749;51.398;5.466;2023-03-04T07:39:04;102416.41;;;7.18;100.00
9421;BME280;4749;51.398;5.466;2023-03-04T07:41:32;102416.75;;;7.25;100.00
9421;BME280;4749;51.398;5.466;2023-03-04T07:44:03;102417.78;;;7.30;100.00
9421;BME280;4749;51.398;5.466;2023-03-04T07:46:32;102419.78;;;7.36;100.00
9421;BME280;4749;51.398;5.466;2023-03-04T07:48:59;102416.53;;;7.42;100.00
9421;BME280;4749;51.398;5.466;2023-03-04T07:51:27;102416.84;;;7.49;100.00
9421;BME280;4749;51.398;5.466;2023-03-04T07:53:58;102425.81;;;7.56;100.00
9421;BME280;4749;51.398;5.466;2023-03-04T07:56:30;102426.13;;;7.63;100.00
9421;BME280;4749;51.398;5.466;2023-03-04T07:58:58;102426.44;;;7.71;100.00
9421;BME280;4749;51.398;5.466;2023-03-04T08:01:35;102429.34;;;7.79;100.00
9421;BME280;4749;51.398;5.466;2023-03-04T08:04:05;102427.75;;;7.82;100.00
9421;BME280;4749;51.398;5.466;2023-03-04T08:06:33;102433.06;;;7.84;100.00
9421;BME280;4749;51.398;5.466;2023-03-04T08:09:04;102438.25;;;7.82;100.00
9421;BME280;4749;51.398;5.466;2023-03-04T08:11:35;102432.81;;;7.78;100.00
9421;BME280;4749;51.398;5.466;2023-03-04T08:14:03;102439.72;;;7.76;100.00
9421;BME280;4749;51.398;5.466;2023-03-04T08:16:31;102435.22;;;7.73;100.00
9421;BME280;4749;51.398;5.466;2023-03-04T08:19:01;102441.31;;;7.72;100.00
9421;BME280;4749;51.398;5.466;2023-03-04T08:21:28;102433.38;;;7.71;100.00
9421;BME280;4749;51.398;5.466;2023-03-04T08:24:00;102437.84;;;7.73;100.00
9421;BME280;4749;51.398;5.466;2023-03-04T08:26:35;102433.69;;;7.78;100.00
9421;BME280;4749;51.398;5.466;2023-03-04T08:29:11;102437.56;;;7.88;100.00
9421;BME280;4749;51.398;5.466;2023-03-04T08:31:38;102439.59;;;7.95;100.00
9421;BME280;4749;51.398;5.466;2023-03-04T08:34:06;102432.88;;;8.02;100.00
9421;BME280;4749;51.398;5.466;2023-03-04T08:36:36;102440.28;;;8.13;100.00
9421;BME280;4749;51.398;5.466;2023-03-04T08:39:04;102451.19;;;8.24;100.00
9421;BME280;4749;51.398;5.466;2023-03-04T08:41:32;102453.41;;;8.36;100.00
9421;BME280;4749;51.398;5.466;2023-03-04T08:44:00;102440.59;;;8.43;100.00
9421;BME280;4749;51.398;5.466;2023-03-04T08:46:28;102452.28;;;8.53;100.00
9421;BME280;4749;51.398;5.466;2023-03-04T08:48:55;102452.63;;;8.62;100.00
9421;BME280;4749;51.398;5.466;2023-03-04T08:51:23;102442.66;;;8.76;100.00
9421;BME280;4749;51.398;5.466;2023-03-04T08:53:51;102450.09;;;8.89;100.00
9421;BME280;4749;51.398;5.466;2023-03-04T08:56:18;102452.25;;;9.01;100.00
9421;BME280;4749;51.398;5.466;2023-03-04T08:58:46;102447.38;;;9.12;100.00
9421;BME280;4749;51.398;5.466;2023-03-04T09:01:14;102447.78;;;9.24;100.00
9421;BME280;4749;51.398;5.466;2023-03-04T09:03:42;102449.22;;;9.41;100.00
9421;BME280;4749;51.398;5.466;2023-03-04T09:06:14;102451.41;;;9.54;100.00
9421;BME280;4749;51.398;5.466;2023-03-04T09:08:43;102442.06;;;9.63;100.00
9421;BME280;4749;51.398;5.466;2023-03-04T09:11:12;102445.81;;;9.71;100.00
9421;BME280;4749;51.398;5.466;2023-03-04T09:13:39;102444.13;;;9.73;100.00
9421;BME280;4749;51.398;5.466;2023-03-04T09:16:12;102445.97;;;9.75;100.00
9421;BME280;4749;51.398;5.466;2023-03-04T09:18:41;102442.44;;;9.75;100.00
9421;BME280;4749;51.398;5.466;2023-03-04T09:21:09;102438.03;;;9.74;100.00
9421;BME280;4749;51.398;5.466;2023-03-04T09:23:38;102433.91;;;9.82;100.00
9421;BME280;4749;51.398;5.466;2023-03-04T09:26:25;102442.13;;;9.93;100.00
9421;BME280;4749;51.398;5.466;2023-03-04T09:28:55;102436.28;;;10.01;100.00
9421;BME280;4749;51.398;5.466;2023-03-04T09:31:25;102431.78;;;10.26;100.00
9421;BME280;4749;51.398;5.466;2023-03-04T09:33:53;102435.69;;;10.40;100.00
9421;BME280;4749;51.398;5.466;2023-03-04T09:36:22;102432.16;;;10.39;100.00
9421;BME280;4749;51.398;5.466;2023-03-04T09:38:49;102435.09;;;10.50;100.00
9421;BME280;4749;51.398;5.466;2023-03-04T09:41:26;102433.41;;;10.52;100.00
9421;BME280;4749;51.398;5.466;2023-03-04T09:43:55;102427.91;;;10.43;100.00
9421;BME280;4749;51.398;5.466;2023-03-04T09:46:37;102432.31;;;10.44;100.00
9421;BME280;4749;51.398;5.466;2023-03-04T09:49:08;102432.38;;;10.47;100.00
9421;BME280;4749;51.398;5.466;2023-03-04T10:00:40;102436.25;;;10.93;100.00
9421;BME280;4749;51.398;5.466;2023-03-04T10:06:06;102426.31;;;11.16;100.00
9421;BME280;4749;51.398;5.466;2023-03-04T10:09:08;102430.88;;;11.21;100.00
9421;BME280;4749;51.398;5.466;2023-03-04T10:19:50;102426.88;;;11.37;100.00
9421;BME280;4749;51.398;5.466;2023-03-04T10:22:30;102420.91;;;11.10;100.00
9421;BME280;4749;51.398;5.466;2023-03-04T10:25:25;102424.06;;;10.95;100.00
9421;BME280;4749;51.398;5.466;2023-03-04T10:30:58;102425.03;;;10.35;100.00
9421;BME280;4749;51.398;5.466;2023-03-04T10:33:32;102406.78;;;10.11;100.00
9421;BME280;4749;51.398;5.466;2023-03-04T10:39:10;102412.47;;;10.25;100.00
9421;BME280;4749;51.398;5.466;2023-03-04T10:41:45;102414.75;;;10.43;100.00
9421;BME280;4749;51.398;5.466;2023-03-04T10:44:19;102414.56;;;10.68;100.00
9421;BME280;4749;51.398;5.466;2023-03-04T10:46:48;102415.56;;;11.07;100.00
9421;BME280;4749;51.398;5.466;2023-03-04T10:49:18;102408.22;;;11.28;100.00
9421;BME280;4749;51.398;5.466;2023-03-04T10:55:03;102404.91;;;11.74;100.00
9421;BME280;4749;51.398;5.466;2023-03-04T10:57:35;102400.56;;;11.76;100.00
9421;BME280;4749;51.398;5.466;2023-03-04T11:00:31;102400.13;;;11.56;100.00
9421;BME280;4749;51.398;5.466;2023-03-04T11:03:27;102393.19;;;11.24;100.00
9421;BME280;4749;51.398;5.466;2023-03-04T11:06:19;102391.06;;;11.09;100.00
9421;BME280;4749;51.398;5.466;2023-03-04T11:08:58;102395.09;;;10.95;100.00
9421;BME280;4749;51.398;5.466;2023-03-04T11:11:40;102383.25;;;10.78;100.00
9421;BME280;4749;51.398;5.466;2023-03-04T11:14:23;102383.91;;;10.69;100.00
9421;BME280;4749;51.398;5.466;2023-03-04T11:17:01;102390.63;;;10.59;100.00
9421;BME280;4749;51.398;5.466;2023-03-04T11:19:38;102381.50;;;10.45;100.00
9421;BME280;4749;51.398;5.466;2023-03-04T11:22:13;102381.97;;;10.32;100.00
9421;BME280;4749;51.398;5.466;2023-03-04T11:24:42;102381.66;;;10.21;100.00
9421;BME280;4749;51.398;5.466;2023-03-04T11:27:43;102383.09;;;10.10;100.00
9421;BME280;4749;51.398;5.466;2023-03-04T11:30:33;102384.66;;;10.03;100.00
9421;BME280;4749;51.398;5.466;2023-03-04T11:33:21;102376.56;;;9.97;100.00
9421;BME280;4749;51.398;5.466;2023-03-04T11:35:55;102373.06;;;9.97;100.00
9421;BME280;4749;51.398;5.466;2023-03-04T11:38:49;102369.53;;;9.96;100.00
9421;BME280;4749;51.398;5.466;2023-03-04T11:41:41;102371.13;;;9.91;100.00
9421;BME280;4749;51.398;5.466;2023-03-04T11:44:13;102361.44;;;9.88;100.00
9421;BME280;4749;51.398;5.466;2023-03-04T11:47:01;102360.63;;;9.91;100.00
9421;BME280;4749;51.398;5.466;2023-03-04T11:49:51;102353.50;;;9.87;100.00
9421;BME280;4749;51.398;5.466;2023-03-04T11:55:36;102351.06;;;9.93;100.00
9421;BME280;4749;51.398;5.466;2023-03-04T12:01:34;102344.94;;;9.93;100.00
9421;BME280;4749;51.398;5.466;2023-03-04T12:21:23;102312.22;;;10.78;100.00
9421;BME280;4749;51.398;5.466;2023-03-04T12:29:52;102299.06;;;10.78;100.00
9421;BME280;4749;51.398;5.466;2023-03-04T12:38:15;102285.75;;;11.47;100.00
9421;BME280;4749;51.398;5.466;2023-03-04T12:44:19;102280.69;;;11.97;100.00
9421;BME280;4749;51.398;5.466;2023-03-04T12:55:49;102278.13;;;12.47;100.00
9421;BME280;4749;51.398;5.466;2023-03-04T12:58:35;102270.19;;;12.45;100.00
9421;BME280;4749;51.398;5.466;2023-03-04T13:01:13;102260.25;;;12.32;100.00
9421;BME280;4749;51.398;5.466;2023-03-04T13:06:55;102258.84;;;12.02;100.00
9421;BME280;4749;51.398;5.466;2023-03-04T13:09:32;102260.38;;;11.91;100.00
9421;BME280;4749;51.398;5.466;2023-03-04T13:12:19;102255.81;;;11.82;100.00
9421;BME280;4749;51.398;5.466;2023-03-04T13:17:41;102253.63;;;11.63;100.00
9421;BME280;4749;51.398;5.466;2023-03-04T13:25:47;102240.44;;;11.21;100.00
9421;BME280;4749;51.398;5.466;2023-03-04T13:28:29;102234.84;;;11.07;100.00
9421;BME280;4749;51.398;5.466;2023-03-04T13:41:13;102238.22;;;10.64;100.00
9421;BME280;4749;51.398;5.466;2023-03-04T13:43:45;102224.72;;;10.50;100.00
9421;BME280;4749;51.398;5.466;2023-03-04T13:51:18;102225.66;;;10.19;100.00
9421;BME280;4749;51.398;5.466;2023-03-04T13:54:14;102225.28;;;10.05;100.00
9421;BME280;4749;51.398;5.466;2023-03-04T13:57:10;102228.56;;;9.97;100.00
9421;BME280;4749;51.398;5.466;2023-03-04T13:59:49;102218.75;;;9.91;100.00
9421;BME280;4749;51.398;5.466;2023-03-04T14:02:23;102206.47;;;9.90;100.00
9421;BME280;4749;51.398;5.466;2023-03-04T14:07:24;102209.97;;;9.91;100.00
9421;BME280;4749;51.398;5.466;2023-03-04T14:12:56;102197.75;;;9.91;100.00
9421;BME280;4749;51.398;5.466;2023-03-04T14:15:26;102196.00;;;9.92;100.00
9421;BME280;4749;51.398;5.466;2023-03-04T14:18:00;102201.97;;;9.84;100.00
9421;BME280;4749;51.398;5.466;2023-03-04T14:20:37;102195.53;;;9.75;100.00
9421;BME280;4749;51.398;5.466;2023-03-04T14:23:25;102189.28;;;9.70;100.00
9421;BME280;4749;51.398;5.466;2023-03-04T14:26:05;102187.47;;;9.67;100.00
9421;BME280;4749;51.398;5.466;2023-03-04T14:28:40;102186.47;;;9.64;100.00
9421;BME280;4749;51.398;5.466;2023-03-04T14:31:18;102180.31;;;9.62;100.00
9421;BME280;4749;51.398;5.466;2023-03-04T14:33:51;102183.78;;;9.61;100.00
9421;BME280;4749;51.398;5.466;2023-03-04T14:36:22;102176.69;;;9.58;100.00
9421;BME280;4749;51.398;5.466;2023-03-04T14:38:57;102175.75;;;9.56;100.00
9421;BME280;4749;51.398;5.466;2023-03-04T14:41:34;102180.13;;;9.55;100.00
9421;BME280;4749;51.398;5.466;2023-03-04T14:47:13;102169.56;;;9.84;100.00
9421;BME280;4749;51.398;5.466;2023-03-04T14:49:44;102172.00;;;10.11;100.00
9421;BME280;4749;51.398;5.466;2023-03-04T14:52:48;102165.75;;;10.40;100.00
9421;BME280;4749;51.398;5.466;2023-03-04T14:55:26;102163.44;;;10.53;100.00
9421;BME280;4749;51.398;5.466;2023-03-04T14:58:07;102162.63;;;10.57;100.00
9421;BME280;4749;51.398;5.466;2023-03-04T15:00:37;102159.94;;;10.54;100.00
9421;BME280;4749;51.398;5.466;2023-03-04T15:03:24;102155.56;;;10.54;100.00
9421;BME280;4749;51.398;5.466;2023-03-04T15:05:52;102156.31;;;10.49;100.00
9421;BME280;4749;51.398;5.466;2023-03-04T15:08:33;102155.94;;;10.33;100.00
9421;BME280;4749;51.398;5.466;2023-03-04T15:11:04;102150.44;;;10.24;100.00
9421;BME280;4749;51.398;5.466;2023-03-04T15:13:43;102155.59;;;10.21;100.00
9421;BME280;4749;51.398;5.466;2023-03-04T15:16:13;102143.34;;;10.22;100.00
9421;BME280;4749;51.398;5.466;2023-03-04T15:19:04;102144.31;;;10.24;100.00
9421;BME280;4749;51.398;5.466;2023-03-04T15:21:42;102139.25;;;10.31;100.00
9421;BME280;4749;51.398;5.466;2023-03-04T15:24:10;102137.66;;;10.38;100.00
9421;BME280;4749;51.398;5.466;2023-03-04T15:26:41;102142.25;;;10.47;100.00